Time;durP1;ratioP1;P1;durP2;ratioP2;P2;SDS_P1;SDS_P2;PMS_P1;PMS_P2;Temp;Humidity;BMP_temperature;BMP_pressure;BME280_temperature;BME280_humidity;BME280_pressure;Samples;Min_cycle;Max_cycle;Signal;HPM_P1;HPM_P2
2022/10/28 00:00:05;;;;;;;47.83;26.05;;;19.00;99.90;;;;;;5023636;28;20046;-74
2022/10/28 00:02:32;;;;;;;47.38;27.20;;;19.10;99.90;;;;;;5039138;28;20033;-76
2022/10/28 00:04:58;;;;;;;52.17;26.25;;;19.00;99.90;;;;;;5040512;28;20056;-76
2022/10/28 00:07:25;;;;;;;53.88;27.45;;;19.00;99.90;;;;;;5013311;28;20046;-75
2022/10/28 00:09:50;;;;;;;54.53;26.00;;;18.90;99.90;;;;;;5038285;28;20092;-77
2022/10/28 00:12:16;;;;;;;42.88;21.95;;;18.90;99.90;;;;;;5025903;28;20029;-76
2022/10/28 00:14:42;;;;;;;35.83;17.75;;;18.90;99.90;;;;;;5042385;28;20117;-76
2022/10/28 00:17:08;;;;;;;33.35;18.38;;;18.80;99.90;;;;;;5024009;28;20032;-75
2022/10/28 00:19:33;;;;;;;37.53;19.38;;;18.80;99.90;;;;;;5030487;28;20045;-75
2022/10/28 00:21:59;;;;;;;28.92;16.50;;;18.80;99.90;;;;;;5027080;28;20049;-75
2022/10/28 00:24:26;;;;;;;31.23;16.55;;;18.80;99.90;;;;;;5042076;28;20034;-75
2022/10/28 00:26:52;;;;;;;27.80;17.42;;;18.80;99.90;;;;;;5031265;28;20508;-76
2022/10/28 00:29:18;;;;;;;39.45;20.27;;;18.80;99.90;;;;;;5026991;28;20037;-75
2022/10/28 00:31:46;;;;;;;;;;;18.80;99.90;;;;;;5025857;28;20473;-75
2022/10/28 00:34:15;;;;;;;41.53;18.55;;;18.80;99.90;;;;;;5042273;28;20705;-76
2022/10/28 00:36:43;;;;;;;32.08;17.92;;;18.70;99.90;;;;;;5031771;28;20039;-76
2022/10/28 00:39:18;;;;;;;35.08;17.60;;;18.80;99.90;;;;;;5028158;28;20026;-76
2022/10/28 00:41:49;;;;;;;31.90;18.23;;;18.80;99.90;;;;;;5014936;28;20032;-76
2022/10/28 00:44:42;;;;;;;33.00;17.70;;;18.80;99.90;;;;;;5026017;28;20034;-76
2022/10/28 00:47:17;;;;;;;31.85;18.52;;;18.80;99.90;;;;;;5027367;28;20128;-76
2022/10/28 00:49:46;;;;;;;32.17;18.10;;;18.70;99.90;;;;;;5045502;28;20033;-75
2022/10/28 00:52:19;;;;;;;33.90;20.15;;;18.70;99.90;;;;;;5019909;28;20052;-76
2022/10/28 00:54:45;;;;;;;;;;;18.80;99.90;;;;;;5038391;28;20575;-76
2022/10/28 00:57:16;;;;;;;35.22;17.65;;;18.80;99.90;;;;;;5038796;28;19909;-76
2022/10/28 00:59:47;;;;;;;37.53;20.48;;;18.80;99.90;;;;;;5042991;28;20083;-76
2022/10/28 01:02:13;;;;;;;41.28;23.15;;;18.80;99.90;;;;;;5031128;28;20148;-76
2022/10/28 01:04:41;;;;;;;36.67;20.10;;;18.80;99.90;;;;;;5028766;28;20041;-76
2022/10/28 01:07:09;;;;;;;36.78;19.70;;;18.80;99.90;;;;;;5022390;28;20398;-75
2022/10/28 01:09:37;;;;;;;36.22;18.95;;;18.80;99.90;;;;;;5032831;28;20152;-76
2022/10/28 01:12:42;;;;;;;35.80;20.45;;;18.80;99.90;;;;;;5030443;28;20446;-76
2022/10/28 01:15:36;;;;;;;40.55;22.92;;;18.80;99.90;;;;;;5002028;28;20069;-75
2022/10/28 01:18:39;;;;;;;45.70;22.63;;;18.70;99.90;;;;;;5027119;28;20573;-75
2022/10/28 01:21:26;;;;;;;38.55;22.70;;;18.60;99.90;;;;;;5009480;28;20143;-76
2022/10/28 01:24:07;;;;;;;42.63;23.45;;;18.70;99.90;;;;;;5027563;28;20061;-75
2022/10/28 01:26:45;;;;;;;41.05;21.95;;;18.70;99.90;;;;;;5041203;28;20397;-75
2022/10/28 01:29:36;;;;;;;44.00;20.50;;;18.70;99.90;;;;;;5041176;28;20042;-75
2022/10/28 01:32:29;;;;;;;39.63;19.13;;;18.80;99.90;;;;;;5021696;28;20053;-75
2022/10/28 01:35:04;;;;;;;41.80;22.38;;;18.70;99.90;;;;;;5028080;28;20566;-77
2022/10/28 01:37:39;;;;;;;56.03;27.20;;;18.70;99.90;;;;;;5026909;28;20445;-75
2022/10/28 01:40:05;;;;;;;56.15;27.55;;;18.70;99.90;;;;;;5040226;28;20601;-76
2022/10/28 01:42:44;;;;;;;51.45;25.92;;;18.60;99.90;;;;;;5026207;28;20042;-76
2022/10/28 01:45:33;;;;;;;47.85;23.42;;;18.60;99.90;;;;;;5040691;28;20041;-76
2022/10/28 01:48:08;;;;;;;51.25;27.08;;;18.60;99.90;;;;;;5020718;28;20038;-75
2022/10/28 01:50:48;;;;;;;49.00;26.05;;;18.60;99.90;;;;;;5037151;28;20069;-75
2022/10/28 01:53:19;;;;;;;41.95;22.00;;;18.60;99.90;;;;;;5018572;28;20049;-76
2022/10/28 01:55:49;;;;;;;40.67;23.17;;;18.60;99.90;;;;;;5028107;28;20069;-75
2022/10/28 01:58:20;;;;;;;48.92;24.70;;;18.60;99.90;;;;;;5015285;28;20420;-75
2022/10/28 02:00:47;;;;;;;47.70;24.95;;;18.60;99.90;;;;;;5034857;28;20041;-76
2022/10/28 02:03:15;;;;;;;42.40;22.58;;;18.60;99.90;;;;;;5027152;28;20649;-75
2022/10/28 02:05:51;;;;;;;61.00;31.60;;;18.70;99.90;;;;;;5027683;28;20029;-75
2022/10/28 02:08:17;;;;;;;56.88;28.98;;;18.70;99.90;;;;;;5036500;28;20964;-75
2022/10/28 02:11:16;;;;;;;48.90;26.30;;;18.60;99.90;;;;;;5040284;28;20052;-75
2022/10/28 02:14:17;;;;;;;47.42;26.05;;;18.60;99.90;;;;;;5020822;28;20049;-76
2022/10/28 02:16:43;;;;;;;45.15;23.88;;;18.60;99.90;;;;;;5036324;28;20040;-75
2022/10/28 02:19:15;;;;;;;42.38;23.30;;;18.60;99.90;;;;;;5032706;28;20045;-77
2022/10/28 02:22:12;;;;;;;44.90;22.25;;;18.50;99.90;;;;;;5040776;28;21850;-76
2022/10/28 02:24:54;;;;;;;42.13;22.95;;;18.50;99.90;;;;;;5034364;28;20043;-76
2022/10/28 02:27:36;;;;;;;41.85;22.55;;;18.50;99.90;;;;;;5045569;28;20029;-76
2022/10/28 02:30:05;;;;;;;47.70;23.45;;;18.50;99.90;;;;;;5041106;28;20026;-76
2022/10/28 02:32:37;;;;;;;44.72;21.73;;;18.60;99.90;;;;;;5028914;28;20030;-76
2022/10/28 02:35:09;;;;;;;46.28;23.77;;;18.60;99.90;;;;;;5026602;28;20037;-76
2022/10/28 02:37:40;;;;;;;38.83;20.10;;;18.60;99.90;;;;;;5028358;28;20112;-76
2022/10/28 02:40:11;;;;;;;39.63;19.88;;;18.60;99.90;;;;;;5028599;28;20072;-75
2022/10/28 02:42:43;;;;;;;36.00;20.17;;;18.50;99.90;;;;;;5028754;28;20033;-76
2022/10/28 02:45:14;;;;;;;36.58;19.50;;;18.50;99.90;;;;;;5031134;28;20124;-76
2022/10/28 02:47:46;;;;;;;36.38;20.10;;;18.50;99.90;;;;;;5041897;28;20096;-76
2022/10/28 02:50:17;;;;;;;37.00;19.75;;;18.50;99.90;;;;;;5039713;28;20087;-75
2022/10/28 02:52:47;;;;;;;34.67;18.02;;;18.40;99.90;;;;;;5043537;28;20945;-76
2022/10/28 02:55:13;;;;;;;32.85;16.58;;;18.40;99.90;;;;;;5028620;28;20062;-75
2022/10/28 02:57:47;;;;;;;30.38;16.02;;;18.40;99.90;;;;;;5027324;28;20045;-77
2022/10/28 03:00:21;;;;;;;30.80;17.38;;;18.40;99.90;;;;;;5042848;28;20037;-76
2022/10/28 03:02:47;;;;;;;32.20;16.65;;;18.40;99.90;;;;;;5033378;28;20120;-77
2022/10/28 03:05:13;;;;;;;30.90;16.02;;;18.40;99.90;;;;;;5012958;28;20093;-77
2022/10/28 03:07:39;;;;;;;27.55;14.15;;;18.30;99.90;;;;;;5029609;28;20037;-76
2022/10/28 03:10:06;;;;;;;26.55;15.32;;;18.30;99.90;;;;;;5017781;28;20038;-75
2022/10/28 03:12:32;;;;;;;25.60;14.45;;;18.30;99.90;;;;;;5024490;28;20025;-75
2022/10/28 03:14:58;;;;;;;28.88;13.93;;;18.30;99.90;;;;;;5025301;28;20034;-76
2022/10/28 03:17:24;;;;;;;26.80;14.52;;;18.20;99.90;;;;;;5020062;28;20041;-76
2022/10/28 03:19:49;;;;;;;29.95;15.77;;;18.20;99.90;;;;;;5025842;28;20544;-76
2022/10/28 03:22:15;;;;;;;24.17;14.77;;;18.10;99.90;;;;;;5024084;28;20045;-75
2022/10/28 03:24:41;;;;;;;29.33;15.00;;;18.10;99.90;;;;;;5030103;28;20045;-76
2022/10/28 03:27:07;;;;;;;27.75;12.52;;;18.10;99.90;;;;;;5040802;28;20361;-75
2022/10/28 03:29:34;;;;;;;26.77;13.18;;;18.00;99.90;;;;;;5028968;28;20369;-76
2022/10/28 03:32:00;;;;;;;20.50;12.13;;;18.00;99.90;;;;;;5021829;28;20038;-76
2022/10/28 03:34:27;;;;;;;21.10;11.25;;;17.90;99.90;;;;;;5032952;28;20059;-75
2022/10/28 03:36:53;;;;;;;19.88;11.13;;;17.90;99.90;;;;;;5030280;28;20021;-76
2022/10/28 03:39:19;;;;;;;19.90;11.18;;;17.90;99.90;;;;;;5043775;28;20037;-76
2022/10/28 03:41:45;;;;;;;19.52;11.10;;;17.80;99.90;;;;;;5041293;28;20042;-76
2022/10/28 03:44:10;;;;;;;28.15;14.10;;;17.80;99.90;;;;;;5026671;28;20041;-75
2022/10/28 03:46:36;;;;;;;25.00;14.55;;;17.80;99.90;;;;;;5033517;28;20043;-76
2022/10/28 03:49:03;;;;;;;26.02;13.55;;;17.70;99.90;;;;;;5019545;28;20033;-75
2022/10/28 03:51:30;;;;;;;26.70;14.40;;;17.70;99.90;;;;;;5025855;28;20061;-76
2022/10/28 03:53:56;;;;;;;27.30;13.27;;;17.70;99.90;;;;;;5043353;28;20037;-76
2022/10/28 03:56:22;;;;;;;30.35;14.60;;;17.70;99.90;;;;;;5025896;28;20445;-75
2022/10/28 03:58:48;;;;;;;31.77;15.30;;;17.70;99.90;;;;;;5037229;28;20107;-76
2022/10/28 04:01:14;;;;;;;33.45;16.83;;;17.70;99.90;;;;;;5020107;28;20555;-76
2022/10/28 04:03:40;;;;;;;35.85;17.60;;;17.60;99.90;;;;;;5037753;28;20037;-76
2022/10/28 04:06:06;;;;;;;37.90;19.15;;;17.60;99.90;;;;;;5023940;28;20053;-76
2022/10/28 04:08:32;;;;;;;35.38;17.83;;;17.50;99.90;;;;;;5047316;28;20124;-75
2022/10/28 04:10:58;;;;;;;36.95;18.73;;;17.40;99.90;;;;;;5030039;28;20064;-75
2022/10/28 04:13:24;;;;;;;38.42;18.23;;;17.40;99.90;;;;;;5027839;28;20059;-76
2022/10/28 04:15:49;;;;;;;31.27;16.95;;;17.30;99.90;;;;;;5032099;28;20029;-75
2022/10/28 04:18:15;;;;;;;32.47;16.23;;;17.40;99.90;;;;;;5037518;28;20042;-76
2022/10/28 04:20:41;;;;;;;29.15;15.73;;;17.40;99.90;;;;;;5032647;28;20037;-75
2022/10/28 04:23:07;;;;;;;25.00;13.43;;;17.40;99.90;;;;;;5024947;28;20373;-76
2022/10/28 04:25:33;;;;;;;28.35;12.63;;;17.40;99.90;;;;;;5019854;28;20175;-75
2022/10/28 04:27:59;;;;;;;25.52;12.43;;;17.40;99.90;;;;;;5039001;28;20038;-76
2022/10/28 04:30:26;;;;;;;25.60;12.68;;;17.40;99.90;;;;;;5020804;28;20084;-76
2022/10/28 04:32:52;;;;;;;28.17;13.77;;;17.40;99.90;;;;;;5028125;28;20037;-76
2022/10/28 04:35:18;;;;;;;23.48;11.70;;;17.50;99.90;;;;;;5024460;28;20124;-75
2022/10/28 04:37:44;;;;;;;18.27;9.23;;;17.40;99.90;;;;;;5023524;28;20045;-76
2022/10/28 04:40:10;;;;;;;17.55;9.75;;;17.40;99.90;;;;;;5032068;28;20397;-76
2022/10/28 04:42:36;;;;;;;17.73;9.60;;;17.30;99.90;;;;;;5027749;28;20422;-76
2022/10/28 04:45:01;;;;;;;18.88;9.63;;;17.30;99.90;;;;;;5031441;28;20036;-76
2022/10/28 04:47:30;;;;;;;14.77;8.23;;;17.20;99.90;;;;;;5017621;28;20034;-75
2022/10/28 04:49:56;;;;;;;19.25;8.00;;;17.20;99.90;;;;;;5024717;28;20050;-75
2022/10/28 04:52:21;;;;;;;16.65;7.80;;;17.30;99.90;;;;;;5032434;28;20048;-76
2022/10/28 04:54:47;;;;;;;14.93;8.32;;;17.30;99.90;;;;;;5047139;28;20389;-76
2022/10/28 04:57:13;;;;;;;18.52;9.15;;;17.20;99.90;;;;;;5043088;28;20489;-75
2022/10/28 04:59:39;;;;;;;16.10;8.90;;;17.20;99.90;;;;;;5031232;28;20503;-76
2022/10/28 05:02:05;;;;;;;17.10;8.93;;;17.20;99.90;;;;;;5043857;28;20053;-76
2022/10/28 05:04:31;;;;;;;;;;;17.30;99.90;;;;;;5020634;28;20053;-75
2022/10/28 05:06:57;;;;;;;17.98;7.75;;;17.30;99.90;;;;;;5039460;28;19913;-76
2022/10/28 05:09:23;;;;;;;14.93;8.23;;;17.30;99.90;;;;;;5024535;28;20034;-75
2022/10/28 05:11:48;;;;;;;17.50;9.15;;;17.20;99.90;;;;;;5027247;28;20034;-76
2022/10/28 05:14:14;;;;;;;16.25;8.82;;;17.20;99.90;;;;;;5027582;28;20038;-76
2022/10/28 05:16:40;;;;;;;17.02;8.93;;;17.20;99.90;;;;;;5041035;28;20033;-76
2022/10/28 05:19:06;;;;;;;17.63;9.85;;;17.20;99.90;;;;;;5021966;28;20061;-76
2022/10/28 05:21:32;;;;;;;18.95;9.80;;;17.20;99.90;;;;;;5030569;28;20568;-76
2022/10/28 05:23:57;;;;;;;19.23;9.18;;;17.20;99.90;;;;;;5048105;28;20457;-76
2022/10/28 05:26:23;;;;;;;21.17;9.85;;;17.20;99.90;;;;;;5031084;28;20029;-75
2022/10/28 05:28:50;;;;;;;18.38;10.43;;;17.20;99.90;;;;;;5038414;28;20026;-75
2022/10/28 05:31:16;;;;;;;19.90;9.43;;;17.20;99.90;;;;;;5020772;28;20441;-75
2022/10/28 05:33:42;;;;;;;;;;;17.20;99.90;;;;;;5030000;28;20055;-76
2022/10/28 05:36:09;;;;;;;15.82;6.70;;;17.20;99.90;;;;;;5022823;28;19952;-75
2022/10/28 05:38:35;;;;;;;15.90;6.50;;;17.20;99.90;;;;;;5021575;28;20060;-75
2022/10/28 05:41:02;;;;;;;17.98;7.18;;;17.30;99.90;;;;;;5012534;28;20041;-75
2022/10/28 05:43:28;;;;;;;14.45;7.57;;;17.40;99.90;;;;;;5021959;28;20037;-76
2022/10/28 05:45:55;;;;;;;13.23;7.10;;;17.30;99.90;;;;;;5027331;28;20392;-75
2022/10/28 05:48:21;;;;;;;22.70;7.75;;;17.30;99.90;;;;;;5042055;28;20125;-76
2022/10/28 05:50:47;;;;;;;14.85;8.52;;;17.30;99.90;;;;;;5029468;28;20101;-76
2022/10/28 05:53:13;;;;;;;18.25;8.55;;;17.20;99.90;;;;;;5034643;28;20046;-74
2022/10/28 05:55:38;;;;;;;15.02;8.45;;;17.20;99.90;;;;;;5039377;28;20037;-76
2022/10/28 05:58:04;;;;;;;17.08;7.57;;;17.20;99.90;;;;;;5020232;28;20029;-76
2022/10/28 06:00:30;;;;;;;17.58;7.90;;;17.20;99.90;;;;;;5025254;28;20034;-78
2022/10/28 06:03:08;;;;;;;16.83;8.18;;;17.20;99.90;;;;;;5033304;28;20057;-76
2022/10/28 06:05:36;;;;;;;16.67;8.00;;;17.20;99.90;;;;;;5017363;28;20033;-76
2022/10/28 06:08:04;;;;;;;12.55;7.05;;;17.20;99.90;;;;;;5042553;28;20033;-77
2022/10/28 06:10:32;;;;;;;15.07;7.70;;;17.20;99.90;;;;;;5023699;28;20059;-77
2022/10/28 06:12:58;;;;;;;16.77;8.80;;;17.20;99.90;;;;;;5042787;28;20033;-76
2022/10/28 06:15:24;;;;;;;17.08;8.95;;;17.30;99.90;;;;;;5014680;28;20138;-76
2022/10/28 06:17:49;;;;;;;15.88;9.43;;;17.30;99.90;;;;;;5030805;28;20041;-75
2022/10/28 06:20:17;;;;;;;21.27;9.38;;;17.30;99.90;;;;;;5032629;28;20052;-76
2022/10/28 06:22:50;;;;;;;17.73;8.55;;;17.30;99.90;;;;;;5023465;28;20025;-77
2022/10/28 06:25:16;;;;;;;20.48;8.88;;;17.30;99.90;;;;;;5009754;28;20484;-76
2022/10/28 06:27:42;;;;;;;16.30;8.27;;;17.30;99.90;;;;;;5032754;28;20048;-77
2022/10/28 06:30:08;;;;;;;18.58;8.75;;;17.20;99.90;;;;;;5027135;28;20121;-77
2022/10/28 06:32:34;;;;;;;16.65;9.02;;;17.30;99.90;;;;;;5026259;28;20046;-77
2022/10/28 06:35:00;;;;;;;16.75;8.70;;;17.40;99.90;;;;;;5035955;28;20037;-76
2022/10/28 06:37:26;;;;;;;20.88;9.65;;;17.50;99.90;;;;;;5035995;28;20045;-77
2022/10/28 06:39:52;;;;;;;21.70;8.60;;;17.60;99.90;;;;;;5033369;28;20368;-77
2022/10/28 06:42:18;;;;;;;19.13;8.43;;;17.60;99.90;;;;;;5025947;28;20519;-76
2022/10/28 06:44:44;;;;;;;16.85;7.65;;;17.60;99.90;;;;;;5023161;28;20124;-75
2022/10/28 06:47:11;;;;;;;18.13;8.35;;;17.60;99.90;;;;;;5032467;28;20109;-75
2022/10/28 06:49:37;;;;;;;19.98;8.27;;;17.80;99.90;;;;;;5033032;28;20069;-76
2022/10/28 06:52:03;;;;;;;16.05;7.30;;;17.80;99.90;;;;;;5041528;28;20121;-75
2022/10/28 06:54:29;;;;;;;16.08;7.75;;;17.90;99.90;;;;;;5041319;28;20095;-75
2022/10/28 06:56:54;;;;;;;18.75;8.73;;;17.90;99.90;;;;;;5026492;28;20097;-75
2022/10/28 06:59:20;;;;;;;21.45;9.63;;;18.00;99.90;;;;;;5036843;28;20037;-75
2022/10/28 07:01:46;;;;;;;22.05;9.20;;;18.10;99.90;;;;;;5035026;28;20111;-75
2022/10/28 07:04:12;;;;;;;17.90;8.23;;;18.00;99.90;;;;;;5033503;28;20030;-75
2022/10/28 07:06:39;;;;;;;19.27;9.10;;;18.10;99.90;;;;;;5041946;28;20022;-76
2022/10/28 07:09:06;;;;;;;;;;;18.20;99.90;;;;;;5040152;28;20072;-75
2022/10/28 07:11:33;;;;;;;24.48;10.50;;;18.20;99.90;;;;;;5032524;28;20384;-75
2022/10/28 07:13:59;;;;;;;20.20;11.05;;;18.30;99.90;;;;;;5025977;28;20773;-75
2022/10/28 07:16:26;;;;;;;22.90;10.65;;;18.40;99.90;;;;;;5024439;28;20030;-75
2022/10/28 07:18:51;;;;;;;;;;;18.50;99.90;;;;;;5023619;28;20079;-75
2022/10/28 07:21:20;;;;;;;23.55;10.68;;;18.60;99.90;;;;;;5026773;28;19925;-75
2022/10/28 07:23:46;;;;;;;20.73;10.43;;;18.60;99.90;;;;;;5050816;28;20070;-74
2022/10/28 07:26:12;;;;;;;21.30;10.35;;;18.70;99.90;;;;;;5026546;28;20444;-75
2022/10/28 07:28:38;;;;;;;21.13;11.40;;;18.70;99.90;;;;;;5037732;28;20124;-75
2022/10/28 07:31:03;;;;;;;18.52;11.00;;;18.80;99.90;;;;;;5028542;28;20025;-75
2022/10/28 07:33:29;;;;;;;21.00;11.52;;;18.90;99.90;;;;;;5029360;28;20103;-75
2022/10/28 07:35:55;;;;;;;28.52;11.52;;;18.90;99.90;;;;;;5031803;28;20029;-75
2022/10/28 07:38:21;;;;;;;24.60;10.98;;;18.80;99.90;;;;;;5031073;28;20099;-74
2022/10/28 07:40:47;;;;;;;29.20;10.98;;;18.90;99.90;;;;;;5041996;28;20373;-74
2022/10/28 07:43:13;;;;;;;23.45;10.63;;;19.00;99.90;;;;;;5026082;28;20042;-75
2022/10/28 07:45:40;;;;;;;21.60;10.38;;;19.10;99.90;;;;;;5041271;28;20041;-75
2022/10/28 07:48:06;;;;;;;19.83;10.70;;;19.20;99.90;;;;;;5022303;28;20048;-74
2022/10/28 07:50:32;;;;;;;22.75;11.85;;;19.30;99.90;;;;;;5027451;28;20685;-75
2022/10/28 07:52:59;;;;;;;29.60;12.98;;;19.40;99.90;;;;;;5020631;28;20044;-75
2022/10/28 07:55:25;;;;;;;24.92;12.55;;;19.40;99.90;;;;;;5010733;28;20515;-75
2022/10/28 07:57:50;;;;;;;24.25;12.40;;;19.40;99.90;;;;;;5040230;28;20040;-75
2022/10/28 08:00:16;;;;;;;27.25;13.68;;;19.40;99.90;;;;;;5032323;28;20041;-75
2022/10/28 08:02:42;;;;;;;36.45;13.25;;;19.50;99.90;;;;;;5027949;28;20083;-75
2022/10/28 08:05:09;;;;;;;23.70;12.63;;;19.50;99.90;;;;;;5027602;28;20076;-75
2022/10/28 08:07:34;;;;;;;27.73;13.35;;;19.80;99.90;;;;;;5027051;28;20099;-76
2022/10/28 08:10:00;;;;;;;29.77;13.60;;;20.50;99.90;;;;;;5026897;28;20038;-78
2022/10/28 08:12:27;;;;;;;24.83;12.95;;;21.10;99.90;;;;;;5049706;28;20041;-79
2022/10/28 08:14:55;;;;;;;24.20;14.05;;;21.60;99.90;;;;;;5035351;28;20036;-78
2022/10/28 08:17:20;;;;;;;47.33;25.35;;;21.90;99.90;;;;;;5031523;28;20040;-77
2022/10/28 08:19:46;;;;;;;29.88;16.38;;;22.50;99.90;;;;;;5046448;28;20528;-77
2022/10/28 08:22:12;;;;;;;25.50;13.60;;;23.20;99.90;;;;;;5037708;28;20032;-78
2022/10/28 08:24:40;;;;;;;26.40;13.95;;;23.40;99.90;;;;;;5040461;28;20136;-78
2022/10/28 08:27:05;;;;;;;25.95;12.63;;;22.90;99.90;;;;;;5040362;28;20048;-78
2022/10/28 08:29:31;;;;;;;23.23;11.45;;;22.20;99.90;;;;;;5032745;28;20034;-78
2022/10/28 08:31:57;;;;;;;20.83;11.13;;;22.40;99.90;;;;;;5051263;28;20452;-78
2022/10/28 08:34:28;;;;;;;24.80;12.20;;;22.10;99.90;;;;;;5029476;28;20042;-77
2022/10/28 08:36:55;;;;;;;25.38;12.55;;;21.80;99.90;;;;;;5026354;28;20033;-78
2022/10/28 08:39:21;;;;;;;22.13;11.63;;;21.50;99.90;;;;;;5048957;28;20053;-78
2022/10/28 08:42:06;;;;;;;24.40;11.13;;;21.40;99.90;;;;;;5040406;28;20423;-78
2022/10/28 08:44:58;;;;;;;24.00;12.55;;;21.40;99.90;;;;;;5026412;28;20033;-78
2022/10/28 08:47:42;;;;;;;21.70;11.38;;;21.60;99.90;;;;;;5051228;28;20087;-77
2022/10/28 08:50:18;;;;;;;23.13;11.95;;;21.70;99.90;;;;;;5049690;28;20068;-77
2022/10/28 08:52:53;;;;;;;26.40;12.05;;;21.80;99.90;;;;;;5030174;28;20692;-78
2022/10/28 08:55:32;;;;;;;21.33;11.73;;;22.00;99.90;;;;;;5032048;28;20497;-78
2022/10/28 08:58:15;;;;;;;27.23;12.65;;;22.10;99.90;;;;;;5042559;28;20064;-78
2022/10/28 09:00:54;;;;;;;24.50;12.93;;;22.20;99.90;;;;;;5025801;28;20128;-78
2022/10/28 09:03:28;;;;;;;22.58;12.18;;;22.20;99.90;;;;;;5036671;28;20120;-78
2022/10/28 09:06:06;;;;;;;37.60;18.90;;;22.30;99.90;;;;;;5037781;28;20038;-78
2022/10/28 09:08:44;;;;;;;25.67;15.95;;;22.40;99.90;;;;;;5031730;28;20092;-79
2022/10/28 09:11:09;;;;;;;27.55;13.52;;;22.40;99.90;;;;;;5028025;28;20029;-78
2022/10/28 09:13:57;;;;;;;24.52;13.73;;;22.50;99.90;;;;;;5043364;28;20061;-78
2022/10/28 09:16:50;;;;;;;20.60;12.32;;;22.50;99.90;;;;;;5000041;28;20036;-78
2022/10/28 09:19:29;;;;;;;21.42;12.30;;;22.60;99.90;;;;;;5032428;28;20048;-79
2022/10/28 09:22:14;;;;;;;21.92;11.70;;;22.60;99.90;;;;;;5031842;28;20040;-77
2022/10/28 09:24:43;;;;;;;25.23;11.50;;;22.70;99.90;;;;;;5032937;28;20034;-79
2022/10/28 09:27:37;;;;;;;21.65;10.40;;;22.70;99.90;;;;;;5032312;28;20025;-79
2022/10/28 09:30:23;;;;;;;29.92;12.52;;;22.60;99.90;;;;;;5036822;28;20034;-78
2022/10/28 09:32:57;;;;;;;27.30;14.30;;;22.50;99.90;;;;;;5044569;28;20028;-78
2022/10/28 09:35:27;;;;;;;28.15;13.50;;;22.70;99.90;;;;;;5028582;28;20045;-77
2022/10/28 09:38:13;;;;;;;23.27;12.38;;;23.10;99.90;;;;;;5045660;28;20037;-77
2022/10/28 09:40:43;;;;;;;24.83;13.02;;;23.40;99.90;;;;;;5030005;28;20049;-77
2022/10/28 09:43:30;;;;;;;23.23;12.63;;;23.50;99.90;;;;;;5030832;28;20044;-78
2022/10/28 09:46:05;;;;;;;25.70;12.27;;;23.70;99.90;;;;;;5047522;28;20058;-79
2022/10/28 09:48:38;;;;;;;27.02;12.23;;;24.00;99.90;;;;;;5032842;28;20516;-78
2022/10/28 09:51:04;;;;;;;21.60;13.02;;;24.40;99.90;;;;;;5043916;28;20110;-77
2022/10/28 09:53:54;;;;;;;22.70;12.82;;;24.60;99.90;;;;;;5041772;28;20048;-77
2022/10/28 09:56:20;;;;;;;22.50;11.30;;;24.80;99.90;;;;;;5027332;28;20041;-77
2022/10/28 09:58:47;;;;;;;21.85;11.73;;;25.20;99.90;;;;;;5015867;28;20100;-78
2022/10/28 10:01:16;;;;;;;24.92;12.45;;;25.50;99.90;;;;;;5042228;28;20030;-78
2022/10/28 10:03:44;;;;;;;22.42;12.43;;;25.80;99.90;;;;;;5032729;28;20042;-78
2022/10/28 10:06:35;;;;;;;27.27;12.60;;;25.80;99.90;;;;;;5028325;28;20038;-78
2022/10/28 10:09:01;;;;;;;32.75;13.25;;;26.10;99.90;;;;;;5028998;28;20109;-77
2022/10/28 10:11:32;;;;;;;;;;;26.20;99.90;;;;;;5028208;28;20156;-78
2022/10/28 10:14:02;;;;;;;27.98;13.35;;;26.00;99.90;;;;;;5040832;28;20418;-75
2022/10/28 10:16:49;;;;;;;21.63;13.30;;;26.20;99.90;;;;;;5027233;28;20046;-75
2022/10/28 10:19:15;;;;;;;27.25;13.35;;;26.20;99.90;;;;;;5023807;28;20843;-74
2022/10/28 10:21:47;;;;;;;24.85;14.10;;;26.40;99.90;;;;;;5022354;28;20039;-74
2022/10/28 10:24:33;;;;;;;21.38;12.13;;;26.70;99.90;;;;;;5039909;28;20056;-74
2022/10/28 10:27:13;;;;;;;25.17;13.13;;;27.00;99.90;;;;;;5038181;28;20524;-75
2022/10/28 10:29:56;;;;;;;25.63;12.73;;;26.90;99.90;;;;;;5044093;28;20109;-75
2022/10/28 10:32:30;;;;;;;25.02;12.60;;;27.20;99.90;;;;;;5032758;28;20037;-75
2022/10/28 10:35:01;;;;;;;26.58;13.23;;;27.20;99.90;;;;;;5042599;28;20057;-75
2022/10/28 10:37:29;;;;;;;25.00;14.13;;;27.10;99.90;;;;;;5031100;28;20393;-75
2022/10/28 10:40:10;;;;;;;27.60;12.73;;;27.00;99.90;;;;;;5028327;28;20045;-75
2022/10/28 10:42:36;;;;;;;22.30;12.60;;;27.40;99.90;;;;;;5026418;28;20125;-75
2022/10/28 10:45:15;;;;;;;;;;;27.60;99.90;;;;;;5018280;28;20034;-75
2022/10/28 10:47:41;;;;;;;25.48;12.43;;;27.20;99.90;;;;;;5037140;28;19917;-76
2022/10/28 10:50:21;;;;;;;23.70;11.93;;;27.40;99.90;;;;;;5031672;28;20063;-76
2022/10/28 10:52:49;;;;;;;22.83;11.13;;;27.40;99.90;;;;;;5040467;28;20053;-75
2022/10/28 10:55:24;;;;;;;24.55;11.38;;;27.70;99.90;;;;;;5039798;28;20140;-75
2022/10/28 10:57:50;;;;;;;19.42;11.43;;;27.80;99.90;;;;;;5045193;28;20030;-75
2022/10/28 11:00:19;;;;;;;;;;;28.10;99.90;;;;;;5025265;28;20042;-76
2022/10/28 11:02:46;;;;;;;18.92;11.13;;;28.00;99.90;;;;;;5032888;28;20416;-76
2022/10/28 11:05:22;;;;;;;20.55;11.82;;;28.30;99.90;;;;;;5024626;28;20040;-75
2022/10/28 11:07:50;;;;;;;22.73;10.65;;;28.60;99.90;;;;;;5022371;28;20044;-74
2022/10/28 11:10:30;;;;;;;18.17;10.95;;;28.70;99.90;;;;;;5038114;28;20060;-77
2022/10/28 11:13:02;;;;;;;24.85;11.57;;;28.90;99.90;;;;;;5022985;28;20033;-76
2022/10/28 11:15:30;;;;;;;21.83;11.27;;;28.20;99.90;;;;;;5041253;28;20124;-75
2022/10/28 11:18:09;;;;;;;21.13;10.65;;;27.60;99.90;;;;;;5020971;28;20060;-75
2022/10/28 11:20:51;;;;;;;17.80;10.35;;;28.00;99.90;;;;;;5030426;28;20042;-76
2022/10/28 11:23:55;;;;;;;17.75;10.48;;;28.20;99.90;;;;;;5026763;28;20068;-75
2022/10/28 11:26:23;;;;;;;22.05;9.77;;;28.60;99.90;;;;;;5008440;28;20034;-74
2022/10/28 11:29:12;;;;;;;20.17;10.30;;;29.00;99.90;;;;;;5027649;28;20041;-75
2022/10/28 11:32:03;;;;;;;19.88;10.18;;;29.30;99.90;;;;;;5030070;28;20042;-75
2022/10/28 11:34:57;;;;;;;19.95;11.18;;;29.50;99.90;;;;;;5049098;28;20037;-76
2022/10/28 11:37:41;;;;;;;21.27;11.23;;;29.90;99.90;;;;;;5015696;28;20104;-75
2022/10/28 11:40:26;;;;;;;17.00;9.82;;;30.40;99.90;;;;;;5032951;28;20144;-76
2022/10/28 11:42:52;;;;;;;19.85;10.85;;;30.60;99.90;;;;;;5043035;28;20030;-77
2022/10/28 11:45:52;;;;;;;20.55;10.30;;;30.60;99.90;;;;;;5029560;28;20044;-75
2022/10/28 11:48:28;;;;;;;25.77;11.45;;;30.80;99.90;;;;;;5037566;28;20594;-77
2022/10/28 11:51:19;;;;;;;21.25;11.43;;;30.50;99.90;;;;;;5031996;28;20049;-78
2022/10/28 11:54:08;;;;;;;21.20;10.32;;;29.80;99.90;;;;;;5032629;28;20053;-75
2022/10/28 11:56:41;;;;;;;21.80;9.98;;;30.30;99.90;;;;;;5032849;28;20064;-77
2022/10/28 11:59:23;;;;;;;22.27;11.05;;;30.30;99.90;;;;;;5022173;28;20060;-75
2022/10/28 12:02:19;;;;;;;18.92;10.07;;;30.90;99.90;;;;;;5029877;28;20454;-75
2022/10/28 12:05:23;;;;;;;16.15;9.38;;;31.10;99.70;;;;;;5036984;28;20085;-76
2022/10/28 12:08:13;;;;;;;21.55;11.18;;;31.20;99.20;;;;;;5028527;28;20032;-76
2022/10/28 12:10:44;;;;;;;19.17;10.70;;;31.00;99.80;;;;;;5022408;28;20515;-76
2022/10/28 12:13:36;;;;;;;17.50;9.82;;;31.80;99.30;;;;;;5027157;28;20025;-76
2022/10/28 12:16:10;;;;;;;21.27;10.55;;;31.70;98.90;;;;;;5046957;28;20037;-76
2022/10/28 12:18:42;;;;;;;17.00;9.85;;;32.00;98.60;;;;;;5039944;28;20042;-77
2022/10/28 12:21:18;;;;;;;17.48;9.95;;;32.20;98.50;;;;;;5025688;28;20041;-77
2022/10/28 12:23:47;;;;;;;16.35;10.40;;;32.60;97.90;;;;;;5026542;28;20040;-76
2022/10/28 12:26:16;;;;;;;21.38;10.57;;;32.80;97.40;;;;;;5028466;28;20025;-76
2022/10/28 12:28:52;;;;;;;18.08;9.88;;;32.60;97.50;;;;;;5033761;28;20040;-76
2022/10/28 12:31:32;;;;;;;18.30;9.05;;;33.10;96.80;;;;;;5040681;28;20044;-75
2022/10/28 12:34:03;;;;;;;16.42;9.13;;;32.90;97.00;;;;;;5025030;28;20052;-76
2022/10/28 12:36:40;;;;;;;15.05;9.65;;;33.40;96.40;;;;;;5028353;28;20037;-77
2022/10/28 12:39:28;;;;;;;17.85;9.32;;;33.10;96.30;;;;;;5047902;28;20066;-76
2022/10/28 12:42:15;;;;;;;14.98;10.68;;;33.60;96.20;;;;;;5030305;28;20030;-78
2022/10/28 12:44:41;;;;;;;14.45;9.23;;;33.70;95.60;;;;;;5022471;28;20029;-75
2022/10/28 12:47:13;;;;;;;17.25;10.05;;;33.80;95.00;;;;;;5037190;28;20037;-76
2022/10/28 12:49:56;;;;;;;;;;;33.80;95.20;;;;;;5048172;28;20029;-75
2022/10/28 12:52:40;;;;;;;16.27;9.82;;;34.30;95.10;;;;;;5043154;28;21360;-75
2022/10/28 12:55:12;;;;;;;16.35;9.25;;;33.80;95.00;;;;;;5043945;28;20099;-75